sensor_id;sensor_type;location;lat;lon;timestamp;P1;durP1;ratioP1;P2;durP2;ratioP2
76136;SDS011;65394;53.172;18.164;2023-03-14T00:01:20;8.80;;;3.60;;
76136;SDS011;65394;53.172;18.164;2023-03-14T00:03:47;9.40;;;3.10;;
76136;SDS011;65394;53.172;18.164;2023-03-14T00:06:14;9.40;;;3.20;;
76136;SDS011;65394;53.172;18.164;2023-03-14T00:08:42;8.30;;;2.60;;
76136;SDS011;65394;53.172;18.164;2023-03-14T00:11:10;8.00;;;2.70;;
76136;SDS011;65394;53.172;18.164;2023-03-14T00:13:39;7.90;;;2.20;;
76136;SDS011;65394;53.172;18.164;2023-03-14T00:16:10;9.40;;;3.20;;
76136;SDS011;65394;53.172;18.164;2023-03-14T00:18:38;8.30;;;3.00;;
76136;SDS011;65394;53.172;18.164;2023-03-14T00:21:06;10.20;;;3.40;;
76136;SDS011;65394;53.172;18.164;2023-03-14T00:23:35;8.20;;;3.10;;
76136;SDS011;65394;53.172;18.164;2023-03-14T00:26:14;6.50;;;2.30;;
76136;SDS011;65394;53.172;18.164;2023-03-14T00:28:42;8.20;;;3.00;;
76136;SDS011;65394;53.172;18.164;2023-03-14T00:31:10;8.00;;;3.30;;
76136;SDS011;65394;53.172;18.164;2023-03-14T00:33:42;9.90;;;3.40;;
76136;SDS011;65394;53.172;18.164;2023-03-14T00:36:14;7.70;;;2.70;;
76136;SDS011;65394;53.172;18.164;2023-03-14T00:38:45;8.60;;;3.00;;
76136;SDS011;65394;53.172;18.164;2023-03-14T00:41:14;9.00;;;3.50;;
76136;SDS011;65394;53.172;18.164;2023-03-14T00:43:45;7.70;;;2.60;;
76136;SDS011;65394;53.172;18.164;2023-03-14T00:46:12;7.30;;;2.90;;
76136;SDS011;65394;53.172;18.164;2023-03-14T00:48:39;8.80;;;3.10;;
76136;SDS011;65394;53.172;18.164;2023-03-14T00:51:07;8.00;;;2.80;;
76136;SDS011;65394;53.172;18.164;2023-03-14T00:53:35;7.90;;;2.30;;
76136;SDS011;65394;53.172;18.164;2023-03-14T00:56:04;10.60;;;2.80;;
76136;SDS011;65394;53.172;18.164;2023-03-14T00:58:33;7.60;;;2.30;;
76136;SDS011;65394;53.172;18.164;2023-03-14T01:01:09;7.50;;;2.70;;
76136;SDS011;65394;53.172;18.164;2023-03-14T01:03:37;7.90;;;2.60;;
76136;SDS011;65394;53.172;18.164;2023-03-14T01:06:17;7.90;;;2.80;;
76136;SDS011;65394;53.172;18.164;2023-03-14T01:08:46;6.70;;;2.20;;
76136;SDS011;65394;53.172;18.164;2023-03-14T01:11:14;7.50;;;2.70;;
76136;SDS011;65394;53.172;18.164;2023-03-14T01:13:44;7.10;;;2.90;;
76136;SDS011;65394;53.172;18.164;2023-03-14T01:16:11;8.00;;;2.20;;
76136;SDS011;65394;53.172;18.164;2023-03-14T01:18:41;6.80;;;2.00;;
76136;SDS011;65394;53.172;18.164;2023-03-14T01:21:11;8.10;;;2.60;;
76136;SDS011;65394;53.172;18.164;2023-03-14T01:23:41;6.40;;;2.00;;
76136;SDS011;65394;53.172;18.164;2023-03-14T01:26:12;7.90;;;2.70;;
76136;SDS011;65394;53.172;18.164;2023-03-14T01:28:50;5.60;;;2.10;;
76136;SDS011;65394;53.172;18.164;2023-03-14T01:31:19;10.90;;;2.10;;
76136;SDS011;65394;53.172;18.164;2023-03-14T01:33:46;5.40;;;1.90;;
76136;SDS011;65394;53.172;18.164;2023-03-14T01:36:13;6.20;;;2.30;;
76136;SDS011;65394;53.172;18.164;2023-03-14T01:38:40;7.50;;;2.60;;
76136;SDS011;65394;53.172;18.164;2023-03-14T01:41:12;7.60;;;2.50;;
76136;SDS011;65394;53.172;18.164;2023-03-14T01:43:43;8.00;;;3.40;;
76136;SDS011;65394;53.172;18.164;2023-03-14T01:51:42;6.40;;;2.40;;
76136;SDS011;65394;53.172;18.164;2023-03-14T01:54:49;6.90;;;2.20;;
76136;SDS011;65394;53.172;18.164;2023-03-14T01:57:08;6.50;;;2.20;;
76136;SDS011;65394;53.172;18.164;2023-03-14T01:59:40;6.90;;;2.50;;
76136;SDS011;65394;53.172;18.164;2023-03-14T02:02:12;7.80;;;2.30;;
76136;SDS011;65394;53.172;18.164;2023-03-14T02:04:40;6.40;;;2.10;;
76136;SDS011;65394;53.172;18.164;2023-03-14T02:07:14;7.70;;;2.60;;
76136;SDS011;65394;53.172;18.164;2023-03-14T02:09:53;5.70;;;1.70;;
76136;SDS011;65394;53.172;18.164;2023-03-14T02:12:25;6.50;;;2.20;;
76136;SDS011;65394;53.172;18.164;2023-03-14T02:15:13;5.80;;;2.10;;
76136;SDS011;65394;53.172;18.164;2023-03-14T02:18:00;6.60;;;2.10;;
76136;SDS011;65394;53.172;18.164;2023-03-14T02:21:03;6.90;;;1.80;;
76136;SDS011;65394;53.172;18.164;2023-03-14T02:23:58;6.30;;;2.30;;
76136;SDS011;65394;53.172;18.164;2023-03-14T02:27:04;5.90;;;1.70;;
76136;SDS011;65394;53.172;18.164;2023-03-14T02:29:31;5.40;;;1.70;;
76136;SDS011;65394;53.172;18.164;2023-03-14T02:32:02;7.10;;;1.90;;
76136;SDS011;65394;53.172;18.164;2023-03-14T02:34:28;6.60;;;1.40;;
76136;SDS011;65394;53.172;18.164;2023-03-14T02:36:58;5.10;;;1.60;;
76136;SDS011;65394;53.172;18.164;2023-03-14T02:39:35;6.10;;;1.80;;
76136;SDS011;65394;53.172;18.164;2023-03-14T02:42:05;5.80;;;1.60;;
76136;SDS011;65394;53.172;18.164;2023-03-14T02:44:31;4.60;;;1.30;;
76136;SDS011;65394;53.172;18.164;2023-03-14T02:46:59;5.60;;;1.40;;
76136;SDS011;65394;53.172;18.164;2023-03-14T02:49:25;5.60;;;1.60;;
76136;SDS011;65394;53.172;18.164;2023-03-14T02:51:57;4.90;;;1.70;;
76136;SDS011;65394;53.172;18.164;2023-03-14T02:54:24;5.30;;;1.60;;
76136;SDS011;65394;53.172;18.164;2023-03-14T02:56:51;4.90;;;1.20;;
76136;SDS011;65394;53.172;18.164;2023-03-14T02:59:18;7.50;;;1.80;;
76136;SDS011;65394;53.172;18.164;2023-03-14T03:01:49;5.20;;;1.40;;
76136;SDS011;65394;53.172;18.164;2023-03-14T03:04:16;3.80;;;1.00;;
76136;SDS011;65394;53.172;18.164;2023-03-14T03:06:45;4.10;;;1.10;;
76136;SDS011;65394;53.172;18.164;2023-03-14T03:09:13;3.80;;;0.90;;
76136;SDS011;65394;53.172;18.164;2023-03-14T03:11:40;6.80;;;1.50;;
76136;SDS011;65394;53.172;18.164;2023-03-14T03:14:06;6.20;;;1.30;;
76136;SDS011;65394;53.172;18.164;2023-03-14T03:16:33;5.50;;;1.00;;
76136;SDS011;65394;53.172;18.164;2023-03-14T03:19:00;5.00;;;1.30;;
76136;SDS011;65394;53.172;18.164;2023-03-14T03:21:26;3.40;;;0.90;;
76136;SDS011;65394;53.172;18.164;2023-03-14T03:23:53;4.80;;;1.30;;
76136;SDS011;65394;53.172;18.164;2023-03-14T03:26:20;5.20;;;1.20;;
76136;SDS011;65394;53.172;18.164;2023-03-14T03:28:46;4.60;;;1.10;;
76136;SDS011;65394;53.172;18.164;2023-03-14T03:31:13;3.80;;;1.00;;
76136;SDS011;65394;53.172;18.164;2023-03-14T03:33:40;3.50;;;1.00;;
76136;SDS011;65394;53.172;18.164;2023-03-14T03:36:07;4.20;;;1.00;;
76136;SDS011;65394;53.172;18.164;2023-03-14T03:38:36;5.60;;;1.20;;
76136;SDS011;65394;53.172;18.164;2023-03-14T03:41:07;4.80;;;0.90;;
76136;SDS011;65394;53.172;18.164;2023-03-14T03:43:35;3.30;;;0.80;;
76136;SDS011;65394;53.172;18.164;2023-03-14T03:46:03;4.40;;;1.10;;
76136;SDS011;65394;53.172;18.164;2023-03-14T03:48:33;6.20;;;1.80;;
76136;SDS011;65394;53.172;18.164;2023-03-14T03:51:03;4.30;;;0.70;;
76136;SDS011;65394;53.172;18.164;2023-03-14T03:53:30;4.00;;;1.00;;
76136;SDS011;65394;53.172;18.164;2023-03-14T03:55:56;4.70;;;1.30;;
76136;SDS011;65394;53.172;18.164;2023-03-14T03:58:23;5.80;;;1.10;;
76136;SDS011;65394;53.172;18.164;2023-03-14T04:00:49;5.10;;;1.20;;
76136;SDS011;65394;53.172;18.164;2023-03-14T04:03:16;5.70;;;1.30;;
76136;SDS011;65394;53.172;18.164;2023-03-14T04:05:43;5.20;;;1.30;;
76136;SDS011;65394;53.172;18.164;2023-03-14T04:08:10;5.10;;;1.10;;
76136;SDS011;65394;53.172;18.164;2023-03-14T04:10:37;5.70;;;1.20;;
76136;SDS011;65394;53.172;18.164;2023-03-14T04:13:10;6.20;;;1.50;;
76136;SDS011;65394;53.172;18.164;2023-03-14T04:15:38;5.70;;;1.30;;
76136;SDS011;65394;53.172;18.164;2023-03-14T04:18:28;5.70;;;1.30;;
76136;SDS011;65394;53.172;18.164;2023-03-14T04:20:57;3.80;;;1.10;;
76136;SDS011;65394;53.172;18.164;2023-03-14T04:23:31;3.90;;;1.00;;
76136;SDS011;65394;53.172;18.164;2023-03-14T04:25:57;5.00;;;1.50;;
76136;SDS011;65394;53.172;18.164;2023-03-14T04:28:25;6.50;;;1.40;;
76136;SDS011;65394;53.172;18.164;2023-03-14T04:30:51;4.20;;;1.40;;
76136;SDS011;65394;53.172;18.164;2023-03-14T04:33:22;5.90;;;1.40;;
76136;SDS011;65394;53.172;18.164;2023-03-14T04:35:53;6.20;;;1.90;;
76136;SDS011;65394;53.172;18.164;2023-03-14T04:38:20;5.50;;;1.80;;
76136;SDS011;65394;53.172;18.164;2023-03-14T04:40:48;5.60;;;2.20;;
76136;SDS011;65394;53.172;18.164;2023-03-14T04:43:15;6.00;;;2.40;;
76136;SDS011;65394;53.172;18.164;2023-03-14T04:45:48;6.20;;;2.40;;
76136;SDS011;65394;53.172;18.164;2023-03-14T04:48:14;6.10;;;2.00;;
76136;SDS011;65394;53.172;18.164;2023-03-14T04:50:41;6.80;;;2.10;;
76136;SDS011;65394;53.172;18.164;2023-03-14T04:53:08;5.20;;;1.90;;
76136;SDS011;65394;53.172;18.164;2023-03-14T04:55:35;5.90;;;1.70;;
76136;SDS011;65394;53.172;18.164;2023-03-14T04:58:02;7.80;;;2.20;;
76136;SDS011;65394;53.172;18.164;2023-03-14T05:00:28;6.10;;;2.10;;
76136;SDS011;65394;53.172;18.164;2023-03-14T05:03:09;6.60;;;2.60;;
76136;SDS011;65394;53.172;18.164;2023-03-14T05:05:46;6.90;;;2.20;;
76136;SDS011;65394;53.172;18.164;2023-03-14T05:08:31;6.70;;;2.30;;
76136;SDS011;65394;53.172;18.164;2023-03-14T05:11:16;7.30;;;2.10;;
76136;SDS011;65394;53.172;18.164;2023-03-14T05:14:01;10.10;;;4.10;;
76136;SDS011;65394;53.172;18.164;2023-03-14T05:16:33;9.80;;;4.70;;
76136;SDS011;65394;53.172;18.164;2023-03-14T05:19:08;8.10;;;3.10;;
76136;SDS011;65394;53.172;18.164;2023-03-14T05:21:54;12.40;;;5.40;;
76136;SDS011;65394;53.172;18.164;2023-03-14T05:24:33;10.80;;;4.90;;
76136;SDS011;65394;53.172;18.164;2023-03-14T05:27:03;7.80;;;3.70;;
76136;SDS011;65394;53.172;18.164;2023-03-14T05:29:52;7.80;;;3.10;;
76136;SDS011;65394;53.172;18.164;2023-03-14T05:32:41;7.30;;;2.80;;
76136;SDS011;65394;53.172;18.164;2023-03-14T05:35:27;7.70;;;3.00;;
76136;SDS011;65394;53.172;18.164;2023-03-14T05:38:22;7.90;;;3.00;;
76136;SDS011;65394;53.172;18.164;2023-03-14T05:41:21;7.50;;;3.40;;
76136;SDS011;65394;53.172;18.164;2023-03-14T05:44:16;9.60;;;3.90;;
76136;SDS011;65394;53.172;18.164;2023-03-14T05:46:59;9.10;;;4.40;;
76136;SDS011;65394;53.172;18.164;2023-03-14T05:49:50;9.50;;;3.90;;
76136;SDS011;65394;53.172;18.164;2023-03-14T05:52:52;8.60;;;3.30;;
76136;SDS011;65394;53.172;18.164;2023-03-14T05:55:45;11.10;;;3.40;;
76136;SDS011;65394;53.172;18.164;2023-03-14T05:58:20;12.70;;;3.60;;
76136;SDS011;65394;53.172;18.164;2023-03-14T06:01:18;7.90;;;3.30;;
76136;SDS011;65394;53.172;18.164;2023-03-14T06:03:56;10.70;;;3.40;;
76136;SDS011;65394;53.172;18.164;2023-03-14T06:06:22;11.60;;;3.80;;
76136;SDS011;65394;53.172;18.164;2023-03-14T06:08:49;8.80;;;5.90;;
76136;SDS011;65394;53.172;18.164;2023-03-14T06:11:16;8.80;;;3.70;;
76136;SDS011;65394;53.172;18.164;2023-03-14T06:13:43;8.30;;;3.10;;
76136;SDS011;65394;53.172;18.164;2023-03-14T06:16:10;8.00;;;2.80;;
76136;SDS011;65394;53.172;18.164;2023-03-14T06:18:36;10.90;;;3.00;;
76136;SDS011;65394;53.172;18.164;2023-03-14T06:21:06;9.10;;;3.50;;
76136;SDS011;65394;53.172;18.164;2023-03-14T06:23:33;9.80;;;3.90;;
76136;SDS011;65394;53.172;18.164;2023-03-14T06:26:00;9.10;;;3.30;;
76136;SDS011;65394;53.172;18.164;2023-03-14T06:28:27;9.70;;;2.90;;
76136;SDS011;65394;53.172;18.164;2023-03-14T06:30:58;9.20;;;3.30;;
76136;SDS011;65394;53.172;18.164;2023-03-14T06:33:25;10.60;;;4.00;;
76136;SDS011;65394;53.172;18.164;2023-03-14T06:35:52;10.00;;;3.70;;
76136;SDS011;65394;53.172;18.164;2023-03-14T06:38:18;9.50;;;3.10;;
76136;SDS011;65394;53.172;18.164;2023-03-14T06:40:45;8.80;;;3.60;;
76136;SDS011;65394;53.172;18.164;2023-03-14T06:43:16;7.70;;;2.60;;
76136;SDS011;65394;53.172;18.164;2023-03-14T06:45:44;9.80;;;3.60;;
76136;SDS011;65394;53.172;18.164;2023-03-14T06:48:10;8.00;;;3.50;;
76136;SDS011;65394;53.172;18.164;2023-03-14T06:50:41;7.20;;;2.90;;
76136;SDS011;65394;53.172;18.164;2023-03-14T06:53:08;8.70;;;3.90;;
76136;SDS011;65394;53.172;18.164;2023-03-14T06:55:36;9.60;;;3.90;;
76136;SDS011;65394;53.172;18.164;2023-03-14T06:58:03;7.50;;;3.50;;
76136;SDS011;65394;53.172;18.164;2023-03-14T07:00:31;9.60;;;4.50;;
76136;SDS011;65394;53.172;18.164;2023-03-14T07:02:57;7.70;;;4.00;;
76136;SDS011;65394;53.172;18.164;2023-03-14T07:05:35;8.60;;;3.40;;
76136;SDS011;65394;53.172;18.164;2023-03-14T07:08:02;12.80;;;4.60;;
76136;SDS011;65394;53.172;18.164;2023-03-14T07:10:29;15.20;;;8.70;;
76136;SDS011;65394;53.172;18.164;2023-03-14T07:12:55;15.10;;;8.80;;
76136;SDS011;65394;53.172;18.164;2023-03-14T07:15:23;14.60;;;4.80;;
76136;SDS011;65394;53.172;18.164;2023-03-14T07:17:53;10.50;;;4.40;;
76136;SDS011;65394;53.172;18.164;2023-03-14T07:20:21;17.10;;;5.00;;
76136;SDS011;65394;53.172;18.164;2023-03-14T07:22:48;11.40;;;3.80;;
76136;SDS011;65394;53.172;18.164;2023-03-14T07:25:16;12.90;;;4.60;;
76136;SDS011;65394;53.172;18.164;2023-03-14T07:27:44;12.90;;;4.50;;
76136;SDS011;65394;53.172;18.164;2023-03-14T07:30:12;13.10;;;5.50;;
76136;SDS011;65394;53.172;18.164;2023-03-14T07:32:39;11.90;;;5.50;;
76136;SDS011;65394;53.172;18.164;2023-03-14T07:35:06;11.40;;;4.70;;
76136;SDS011;65394;53.172;18.164;2023-03-14T07:37:36;10.70;;;4.30;;
76136;SDS011;65394;53.172;18.164;2023-03-14T07:40:03;16.80;;;5.10;;
76136;SDS011;65394;53.172;18.164;2023-03-14T07:42:35;12.50;;;4.90;;
76136;SDS011;65394;53.172;18.164;2023-03-14T07:45:28;12.00;;;4.40;;
76136;SDS011;65394;53.172;18.164;2023-03-14T07:47:55;11.90;;;4.50;;
76136;SDS011;65394;53.172;18.164;2023-03-14T07:50:25;11.00;;;4.30;;
76136;SDS011;65394;53.172;18.164;2023-03-14T07:52:52;12.30;;;4.50;;
76136;SDS011;65394;53.172;18.164;2023-03-14T07:55:20;8.10;;;3.10;;
76136;SDS011;65394;53.172;18.164;2023-03-14T07:57:47;9.60;;;3.40;;
76136;SDS011;65394;53.172;18.164;2023-03-14T08:00:13;7.50;;;2.90;;
76136;SDS011;65394;53.172;18.164;2023-03-14T08:02:40;10.90;;;3.40;;
76136;SDS011;65394;53.172;18.164;2023-03-14T08:05:07;10.20;;;4.10;;
76136;SDS011;65394;53.172;18.164;2023-03-14T08:07:34;9.60;;;3.20;;
76136;SDS011;65394;53.172;18.164;2023-03-14T08:10:01;8.00;;;3.40;;
76136;SDS011;65394;53.172;18.164;2023-03-14T08:12:28;11.10;;;4.80;;
76136;SDS011;65394;53.172;18.164;2023-03-14T08:14:54;13.60;;;5.50;;
76136;SDS011;65394;53.172;18.164;2023-03-14T08:17:21;12.80;;;6.20;;
76136;SDS011;65394;53.172;18.164;2023-03-14T08:19:48;7.40;;;3.00;;
76136;SDS011;65394;53.172;18.164;2023-03-14T08:22:14;12.10;;;4.70;;
76136;SDS011;65394;53.172;18.164;2023-03-14T08:24:41;7.60;;;2.80;;
76136;SDS011;65394;53.172;18.164;2023-03-14T08:27:08;10.10;;;4.10;;
76136;SDS011;65394;53.172;18.164;2023-03-14T08:29:34;9.70;;;4.20;;
76136;SDS011;65394;53.172;18.164;2023-03-14T08:32:01;13.70;;;3.90;;
76136;SDS011;65394;53.172;18.164;2023-03-14T08:34:28;9.60;;;3.70;;
76136;SDS011;65394;53.172;18.164;2023-03-14T08:36:54;10.70;;;4.00;;
76136;SDS011;65394;53.172;18.164;2023-03-14T08:39:23;10.90;;;4.00;;
76136;SDS011;65394;53.172;18.164;2023-03-14T08:41:49;8.80;;;3.50;;
76136;SDS011;65394;53.172;18.164;2023-03-14T08:44:16;8.80;;;3.80;;
76136;SDS011;65394;53.172;18.164;2023-03-14T08:46:43;9.70;;;3.80;;
76136;SDS011;65394;53.172;18.164;2023-03-14T08:49:09;9.00;;;3.90;;
76136;SDS011;65394;53.172;18.164;2023-03-14T08:51:36;10.60;;;5.70;;
76136;SDS011;65394;53.172;18.164;2023-03-14T08:54:02;10.50;;;4.20;;
76136;SDS011;65394;53.172;18.164;2023-03-14T08:56:29;8.60;;;3.30;;
76136;SDS011;65394;53.172;18.164;2023-03-14T08:58:56;9.70;;;4.10;;
76136;SDS011;65394;53.172;18.164;2023-03-14T09:01:22;10.00;;;3.50;;
76136;SDS011;65394;53.172;18.164;2023-03-14T09:03:51;12.40;;;4.40;;
76136;SDS011;65394;53.172;18.164;2023-03-14T09:06:18;9.90;;;4.20;;
76136;SDS011;65394;53.172;18.164;2023-03-14T09:08:45;9.90;;;3.50;;
76136;SDS011;65394;53.172;18.164;2023-03-14T09:11:12;9.10;;;3.30;;
76136;SDS011;65394;53.172;18.164;2023-03-14T09:13:39;11.00;;;4.40;;
76136;SDS011;65394;53.172;18.164;2023-03-14T09:16:07;12.00;;;3.50;;
76136;SDS011;65394;53.172;18.164;2023-03-14T09:18:34;9.90;;;3.00;;
76136;SDS011;65394;53.172;18.164;2023-03-14T09:21:01;12.30;;;3.90;;
76136;SDS011;65394;53.172;18.164;2023-03-14T09:23:27;9.70;;;3.20;;
76136;SDS011;65394;53.172;18.164;2023-03-14T09:25:55;12.80;;;3.80;;
76136;SDS011;65394;53.172;18.164;2023-03-14T09:28:22;10.30;;;3.10;;
76136;SDS011;65394;53.172;18.164;2023-03-14T09:30:50;11.10;;;3.10;;
76136;SDS011;65394;53.172;18.164;2023-03-14T09:33:17;7.60;;;2.60;;
76136;SDS011;65394;53.172;18.164;2023-03-14T09:35:44;6.40;;;2.20;;
76136;SDS011;65394;53.172;18.164;2023-03-14T09:38:11;16.00;;;3.70;;
76136;SDS011;65394;53.172;18.164;2023-03-14T09:40:38;13.60;;;3.90;;
76136;SDS011;65394;53.172;18.164;2023-03-14T09:43:05;11.50;;;2.90;;
76136;SDS011;65394;53.172;18.164;2023-03-14T09:45:36;9.10;;;2.70;;
76136;SDS011;65394;53.172;18.164;2023-03-14T09:48:08;10.80;;;2.60;;
76136;SDS011;65394;53.172;18.164;2023-03-14T09:50:44;9.20;;;2.50;;
76136;SDS011;65394;53.172;18.164;2023-03-14T09:53:17;8.90;;;2.70;;
76136;SDS011;65394;53.172;18.164;2023-03-14T09:55:46;6.90;;;2.00;;
76136;SDS011;65394;53.172;18.164;2023-03-14T09:58:22;8.60;;;2.40;;
76136;SDS011;65394;53.172;18.164;2023-03-14T10:00:52;9.50;;;2.60;;
76136;SDS011;65394;53.172;18.164;2023-03-14T10:03:34;9.20;;;2.90;;
76136;SDS011;65394;53.172;18.164;2023-03-14T10:06:01;8.70;;;2.40;;
76136;SDS011;65394;53.172;18.164;2023-03-14T10:08:28;7.40;;;2.70;;
76136;SDS011;65394;53.172;18.164;2023-03-14T10:10:55;7.30;;;2.20;;
76136;SDS011;65394;53.172;18.164;2023-03-14T10:13:23;6.60;;;2.10;;
76136;SDS011;65394;53.172;18.164;2023-03-14T10:15:54;6.90;;;2.10;;
76136;SDS011;65394;53.172;18.164;2023-03-14T10:18:25;6.20;;;2.30;;
76136;SDS011;65394;53.172;18.164;2023-03-14T10:21:06;12.50;;;3.50;;
76136;SDS011;65394;53.172;18.164;2023-03-14T10:23:47;5.30;;;1.60;;
76136;SDS011;65394;53.172;18.164;2023-03-14T10:26:17;6.70;;;2.30;;
76136;SDS011;65394;53.172;18.164;2023-03-14T10:28:46;8.00;;;2.30;;
76136;SDS011;65394;53.172;18.164;2023-03-14T10:31:18;8.00;;;1.80;;
76136;SDS011;65394;53.172;18.164;2023-03-14T10:34:01;7.80;;;2.40;;
76136;SDS011;65394;53.172;18.164;2023-03-14T10:36:30;7.80;;;1.90;;
76136;SDS011;65394;53.172;18.164;2023-03-14T10:42:24;6.30;;;2.00;;
76136;SDS011;65394;53.172;18.164;2023-03-14T10:44:57;13.60;;;2.40;;
76136;SDS011;65394;53.172;18.164;2023-03-14T10:47:26;5.90;;;2.10;;
76136;SDS011;65394;53.172;18.164;2023-03-14T10:49:55;6.80;;;2.30;;
76136;SDS011;65394;53.172;18.164;2023-03-14T10:52:27;10.30;;;1.90;;
76136;SDS011;65394;53.172;18.164;2023-03-14T10:55:03;7.70;;;2.20;;
76136;SDS011;65394;53.172;18.164;2023-03-14T10:57:40;9.90;;;3.30;;
76136;SDS011;65394;53.172;18.164;2023-03-14T11:00:15;8.10;;;2.90;;
76136;SDS011;65394;53.172;18.164;2023-03-14T11:02:56;7.80;;;2.80;;
76136;SDS011;65394;53.172;18.164;2023-03-14T11:05:37;12.30;;;3.30;;
76136;SDS011;65394;53.172;18.164;2023-03-14T11:11:25;9.70;;;2.60;;
76136;SDS011;65394;53.172;18.164;2023-03-14T11:28:38;10.90;;;2.90;;
76136;SDS011;65394;53.172;18.164;2023-03-14T11:36:59;8.10;;;2.50;;
76136;SDS011;65394;53.172;18.164;2023-03-14T11:39:38;8.70;;;2.10;;
76136;SDS011;65394;53.172;18.164;2023-03-14T11:42:11;9.10;;;2.90;;
76136;SDS011;65394;53.172;18.164;2023-03-14T11:44:43;7.80;;;2.30;;
76136;SDS011;65394;53.172;18.164;2023-03-14T11:47:15;5.90;;;1.90;;
76136;SDS011;65394;53.172;18.164;2023-03-14T11:52:49;10.70;;;3.40;;
76136;SDS011;65394;53.172;18.164;2023-03-14T11:55:33;8.10;;;1.70;;
76136;SDS011;65394;53.172;18.164;2023-03-14T12:00:50;8.30;;;3.10;;
76136;SDS011;65394;53.172;18.164;2023-03-14T12:03:35;9.80;;;3.10;;
76136;SDS011;65394;53.172;18.164;2023-03-14T12:06:24;9.80;;;3.30;;
76136;SDS011;65394;53.172;18.164;2023-03-14T12:09:11;7.70;;;3.30;;
76136;SDS011;65394;53.172;18.164;2023-03-14T12:11:52;9.60;;;2.40;;
76136;SDS011;65394;53.172;18.164;2023-03-14T12:14:28;10.50;;;2.50;;
76136;SDS011;65394;53.172;18.164;2023-03-14T12:17:03;6.10;;;1.90;;
76136;SDS011;65394;53.172;18.164;2023-03-14T12:19:33;8.50;;;2.60;;
76136;SDS011;65394;53.172;18.164;2023-03-14T12:22:21;13.50;;;2.50;;
76136;SDS011;65394;53.172;18.164;2023-03-14T12:25:00;9.20;;;2.20;;
76136;SDS011;65394;53.172;18.164;2023-03-14T12:27:46;6.30;;;2.00;;
76136;SDS011;65394;53.172;18.164;2023-03-14T12:35:46;10.50;;;2.80;;
76136;SDS011;65394;53.172;18.164;2023-03-14T12:38:23;7.50;;;1.70;;
76136;SDS011;65394;53.172;18.164;2023-03-14T12:41:05;6.70;;;2.10;;
76136;SDS011;65394;53.172;18.164;2023-03-14T12:43:52;10.60;;;2.60;;
76136;SDS011;65394;53.172;18.164;2023-03-14T12:46:25;12.30;;;3.40;;
76136;SDS011;65394;53.172;18.164;2023-03-14T12:48:57;13.80;;;3.70;;
76136;SDS011;65394;53.172;18.164;2023-03-14T12:51:35;6.60;;;2.00;;
76136;SDS011;65394;53.172;18.164;2023-03-14T12:54:19;11.40;;;3.00;;
76136;SDS011;65394;53.172;18.164;2023-03-14T12:56:57;10.40;;;2.90;;
76136;SDS011;65394;53.172;18.164;2023-03-14T12:59:34;11.10;;;3.40;;
76136;SDS011;65394;53.172;18.164;2023-03-14T13:07:28;8.80;;;2.60;;
76136;SDS011;65394;53.172;18.164;2023-03-14T13:12:50;10.90;;;3.10;;
76136;SDS011;65394;53.172;18.164;2023-03-14T13:15:24;11.60;;;3.30;;
76136;SDS011;65394;53.172;18.164;2023-03-14T13:18:03;8.40;;;2.20;;
76136;SDS011;65394;53.172;18.164;2023-03-14T13:20:53;6.40;;;2.00;;
76136;SDS011;65394;53.172;18.164;2023-03-14T13:23:26;9.60;;;2.60;;
76136;SDS011;65394;53.172;18.164;2023-03-14T13:25:55;7.90;;;2.70;;
76136;SDS011;65394;53.172;18.164;2023-03-14T13:28:24;9.90;;;2.60;;
76136;SDS011;65394;53.172;18.164;2023-03-14T13:30:57;9.00;;;2.80;;
76136;SDS011;65394;53.172;18.164;2023-03-14T13:33:26;8.00;;;3.00;;
76136;SDS011;65394;53.172;18.164;2023-03-14T13:38:25;9.80;;;3.10;;
76136;SDS011;65394;53.172;18.164;2023-03-14T13:40:54;14.30;;;3.80;;
76136;SDS011;65394;53.172;18.164;2023-03-14T13:43:30;9.60;;;4.30;;
76136;SDS011;65394;53.172;18.164;2023-03-14T13:48:32;8.90;;;3.00;;
76136;SDS011;65394;53.172;18.164;2023-03-14T13:51:05;12.70;;;3.30;;
76136;SDS011;65394;53.172;18.164;2023-03-14T13:53:51;12.30;;;3.90;;
76136;SDS011;65394;53.172;18.164;2023-03-14T13:56:20;14.30;;;5.10;;
76136;SDS011;65394;53.172;18.164;2023-03-14T13:58:48;10.50;;;4.40;;
76136;SDS011;65394;53.172;18.164;2023-03-14T14:01:49;15.20;;;4.90;;
76136;SDS011;65394;53.172;18.164;2023-03-14T14:04:13;12.90;;;4.80;;
76136;SDS011;65394;53.172;18.164;2023-03-14T14:06:46;17.20;;;4.80;;
76136;SDS011;65394;53.172;18.164;2023-03-14T14:09:18;14.60;;;5.40;;
76136;SDS011;65394;53.172;18.164;2023-03-14T14:12:34;18.10;;;8.00;;
76136;SDS011;65394;53.172;18.164;2023-03-14T14:14:48;14.50;;;4.40;;
76136;SDS011;65394;53.172;18.164;2023-03-14T14:17:39;12.30;;;4.20;;
76136;SDS011;65394;53.172;18.164;2023-03-14T14:20:21;11.70;;;3.70;;
76136;SDS011;65394;53.172;18.164;2023-03-14T14:22:58;14.60;;;5.00;;
76136;SDS011;65394;53.172;18.164;2023-03-14T14:25:30;17.90;;;5.60;;
76136;SDS011;65394;53.172;18.164;2023-03-14T14:27:57;17.20;;;5.40;;
76136;SDS011;65394;53.172;18.164;2023-03-14T14:33:06;15.90;;;4.50;;
76136;SDS011;65394;53.172;18.164;2023-03-14T14:35:49;13.30;;;4.10;;
76136;SDS011;65394;53.172;18.164;2023-03-14T14:38:24;12.50;;;2.90;;
76136;SDS011;65394;53.172;18.164;2023-03-14T14:40:58;11.20;;;4.00;;
76136;SDS011;65394;53.172;18.164;2023-03-14T14:43:30;7.60;;;3.00;;
76136;SDS011;65394;53.172;18.164;2023-03-14T14:46:05;10.30;;;3.20;;
76136;SDS011;65394;53.172;18.164;2023-03-14T14:48:37;11.90;;;3.30;;
76136;SDS011;65394;53.172;18.164;2023-03-14T14:51:05;7.90;;;3.00;;
76136;SDS011;65394;53.172;18.164;2023-03-14T14:53:41;12.60;;;3.40;;
76136;SDS011;65394;53.172;18.164;2023-03-14T14:56:17;11.50;;;3.40;;
76136;SDS011;65394;53.172;18.164;2023-03-14T14:58:49;15.50;;;5.10;;
76136;SDS011;65394;53.172;18.164;2023-03-14T15:01:17;21.70;;;5.70;;
76136;SDS011;65394;53.172;18.164;2023-03-14T15:03:47;21.70;;;6.70;;
76136;SDS011;65394;53.172;18.164;2023-03-14T15:06:20;13.80;;;4.90;;
76136;SDS011;65394;53.172;18.164;2023-03-14T15:08:50;19.90;;;6.70;;
76136;SDS011;65394;53.172;18.164;2023-03-14T15:11:21;12.20;;;4.70;;
76136;SDS011;65394;53.172;18.164;2023-03-14T15:13:50;15.50;;;4.70;;
76136;SDS011;65394;53.172;18.164;2023-03-14T15:16:21;16.90;;;5.70;;
76136;SDS011;65394;53.172;18.164;2023-03-14T15:18:55;15.10;;;5.40;;
76136;SDS011;65394;53.172;18.164;2023-03-14T15:21:28;18.10;;;5.40;;
76136;SDS011;65394;53.172;18.164;2023-03-14T15:23:55;11.70;;;4.50;;
76136;SDS011;65394;53.172;18.164;2023-03-14T15:26:24;13.70;;;4.70;;
76136;SDS011;65394;53.172;18.164;2023-03-14T15:28:53;14.20;;;4.30;;
76136;SDS011;65394;53.172;18.164;2023-03-14T15:31:20;14.40;;;3.90;;
76136;SDS011;65394;53.172;18.164;2023-03-14T15:33:50;16.40;;;5.60;;
76136;SDS011;65394;53.172;18.164;2023-03-14T15:36:27;15.90;;;6.60;;
76136;SDS011;65394;53.172;18.164;2023-03-14T15:38:57;18.30;;;7.00;;
76136;SDS011;65394;53.172;18.164;2023-03-14T15:41:26;13.90;;;5.70;;
76136;SDS011;65394;53.172;18.164;2023-03-14T15:43:58;12.50;;;5.00;;
76136;SDS011;65394;53.172;18.164;2023-03-14T15:46:25;14.30;;;5.10;;
76136;SDS011;65394;53.172;18.164;2023-03-14T15:48:52;15.50;;;6.00;;
76136;SDS011;65394;53.172;18.164;2023-03-14T15:51:19;9.10;;;3.00;;
76136;SDS011;65394;53.172;18.164;2023-03-14T15:53:45;10.90;;;3.90;;
76136;SDS011;65394;53.172;18.164;2023-03-14T15:56:14;20.30;;;7.00;;
76136;SDS011;65394;53.172;18.164;2023-03-14T15:58:43;18.50;;;7.70;;